الصفحة الرئيسية
METAR-TAF:

METAR-TAF

مطار :

Tongatapu, تونجا

دائرة عرض: 21-14S, خط طول: 175-09W, ارتفاع: 38 متر

مراقبة الطقس الحالي

تاريخ ووقت الإصدار 21 دقيقة قبل الساعة 09:00UTC
ريح 5 عقدة من الشرق/الجنوب الشرقي
درجة الحرارة 25°درجة مئوية
الرطوبة 83%
ضغط 1012 hPa
الرؤية 10 كم أو أكثر
غيوم قليلة على ارتفاع 800 قدم
غيوم قليلة على ارتفاع 1500 قدم, مزن ركامية عمودية.
غيوم مفككة على ارتفاع 12000 قدم

METAR: NFTF 040900Z 12005KT 9999 FEW008 FEW015TCU BKN120 25/22 Q1012

زمن: 22:21 (09:21 UTC)

توقعات

تاريخ ووقت الإصدار 4ساعات و 7 دقيقة قبل الساعة 05:14UTC
التوقعات صالحة من04 الساعة 06 UTC إلى 05 الساعة 06 UTC
ريح 9 عقدة من الجنوب الشرقي
الرؤية 10 كم أو أكثر
غيوم قليلة على ارتفاع 700 قدم
غيوم متفرقة على ارتفاع 1600 قدم
غيوم مفككة على ارتفاع 10000 قدم
نظرية الاحتمالات 30% :
مؤقت
من 05 الساعة 00 UTC إلى 05 الساعة 06 UTC
الرؤية: 5000 متر
غيوم مفككة على ارتفاع 1500 قدم
زخات من المطر

TAF: NFTF 040514Z 0406/0506 13009KT 9999 FEW007 SCT016 BKN100 PROB30 TEMPO 0500/0506 5000 SHRA BKN015

أرصاد الطقس والتوقعات من أكثر من 4000 مطار (تقارير الطقس للمطار METAR والتنبؤ بالطقس بالمطارTAF).

المحطات المتاحة هي النقط الصفراء والحمراء على الخريطة.

حرك المؤشر فوق النقطة لمعرفة اسم المحطة.

ثم انقر لمعرفة أرصاد وتوقعات الطقس.

لتغيير الخارطة: اضغط على الأزرار الخضراء مع رمز الصليب الأسود للتكبير. على الزر الأخضر مع شرطة للتصغير، أو على الأسهم الخضراء للخرائط المجاورة.


METAR-TAF: